createdAt,value
2019-02-04T00:00:59.397Z,101685.77
2019-02-04T00:03:28.594Z,101683.26
2019-02-04T00:05:57.808Z,101684.41
2019-02-04T00:08:27.555Z,101686.69
2019-02-04T00:10:59.191Z,101697.61
2019-02-04T00:13:28.392Z,101699.86
2019-02-04T00:15:57.583Z,101710.80
2019-02-04T00:18:26.798Z,101712.08
2019-02-04T00:20:56.007Z,101709.01
2019-02-04T00:23:25.207Z,101707.71
2019-02-04T00:25:55.029Z,101709.91
2019-02-04T00:28:24.191Z,101707.05
2019-02-04T00:30:53.355Z,101707.86
2019-02-04T00:33:22.530Z,101711.87
2019-02-04T00:35:51.711Z,101712.23
2019-02-04T00:38:20.899Z,101710.00
2019-02-04T00:40:50.917Z,101711.16
2019-02-04T00:43:20.069Z,101708.56
2019-02-04T00:45:49.258Z,101705.16
2019-02-04T00:48:18.557Z,101711.81
2019-02-04T00:50:48.130Z,101700.36
2019-02-04T00:53:17.652Z,101708.98
2019-02-04T00:55:46.814Z,101713.75
2019-02-04T00:58:16.020Z,101708.89
2019-02-04T01:00:45.175Z,101707.50
2019-02-04T01:03:14.434Z,101703.26
2019-02-04T01:05:44.365Z,101700.36
2019-02-04T01:08:14.070Z,101704.79
2019-02-04T01:10:43.262Z,101706.36
2019-02-04T01:13:12.433Z,101701.52
2019-02-04T01:15:41.904Z,101704.25
2019-02-04T01:18:11.447Z,101707.56
2019-02-04T01:20:40.706Z,101710.42
2019-02-04T01:23:10.187Z,101704.79
2019-02-04T01:25:39.398Z,101711.14
2019-02-04T01:28:08.600Z,101709.30
2019-02-04T01:30:38.191Z,101707.20
2019-02-04T01:33:08.037Z,101719.80
2019-02-04T01:35:37.512Z,101712.66
2019-02-04T01:38:06.670Z,101712.57
2019-02-04T01:40:36.173Z,101707.80
2019-02-04T01:43:05.356Z,101713.19
2019-02-04T01:45:34.635Z,101711.46
2019-02-04T01:48:04.959Z,101707.47
2019-02-04T01:50:34.103Z,101708.01
2019-02-04T01:53:04.084Z,101710.02
2019-02-04T01:55:33.901Z,101710.80
2019-02-04T01:58:03.065Z,101712.94
2019-02-04T02:00:37.394Z,101716.60
2019-02-04T02:03:06.660Z,101717.90
2019-02-04T02:05:36.320Z,101710.44
2019-02-04T02:08:05.811Z,101714.02
2019-02-04T02:10:34.970Z,101719.37
2019-02-04T02:13:04.974Z,101705.30
2019-02-04T02:15:34.529Z,101706.95
2019-02-04T02:18:03.775Z,101704.37
2019-02-04T02:20:32.996Z,101700.73
2019-02-04T02:23:02.202Z,101707.58
2019-02-04T02:25:31.383Z,101700.20
2019-02-04T02:28:00.581Z,101701.15
2019-02-04T02:30:32.228Z,101695.25
2019-02-04T02:33:01.621Z,101695.97
2019-02-04T02:35:30.838Z,101698.33
2019-02-04T02:38:00.239Z,101697.08
2019-02-04T02:40:33.879Z,101701.41
2019-02-04T02:43:03.488Z,101709.01
2019-02-04T02:45:33.047Z,101705.34
2019-02-04T02:48:02.237Z,101712.57
2019-02-04T02:50:31.745Z,101694.67
2019-02-04T02:53:00.941Z,101705.56
2019-02-04T02:55:30.556Z,101713.97
2019-02-04T02:57:59.738Z,101704.63
2019-02-04T03:00:29.656Z,101709.59
2019-02-04T03:02:59.156Z,101704.98
2019-02-04T03:05:28.646Z,101704.84
2019-02-04T03:07:57.838Z,101704.98
2019-02-04T03:10:29.217Z,101707.88
2019-02-04T03:12:58.389Z,101708.20
2019-02-04T03:15:27.584Z,101702.61
2019-02-04T03:17:56.786Z,101694.58
2019-02-04T03:20:26.433Z,101692.92
2019-02-04T03:22:55.704Z,101704.16
2019-02-04T03:25:25.367Z,101691.20
2019-02-04T03:27:54.605Z,101692.56
2019-02-04T03:30:26.050Z,101691.35
2019-02-04T03:32:55.271Z,101694.13
2019-02-04T03:35:24.429Z,101695.15
2019-02-04T03:37:55.792Z,101690.15
2019-02-04T03:40:27.813Z,101689.30
2019-02-04T03:42:56.947Z,101691.31
2019-02-04T03:45:26.249Z,101696.80
2019-02-04T03:48:04.233Z,101694.34
2019-02-04T03:50:26.620Z,101692.83
2019-02-04T03:52:56.008Z,101690.06
2019-02-04T03:55:25.294Z,101694.48
2019-02-04T03:57:54.801Z,101692.92
2019-02-04T04:00:29.498Z,101689.48
2019-02-04T04:02:58.669Z,101688.09
2019-02-04T04:05:28.154Z,101683.55
2019-02-04T04:07:57.671Z,101685.90
2019-02-04T04:10:26.839Z,101693.70
2019-02-04T04:12:56.026Z,101698.67
2019-02-04T04:15:25.306Z,101692.92
2019-02-04T04:17:55.767Z,101697.50
2019-02-04T04:20:25.340Z,101689.78
2019-02-04T04:22:54.575Z,101687.23
2019-02-04T04:25:24.090Z,101685.51
2019-02-04T04:27:54.441Z,101690.78
2019-02-04T04:30:26.104Z,101688.04
2019-02-04T04:32:55.909Z,101693.44
2019-02-04T04:35:25.227Z,101689.52
2019-02-04T04:37:56.109Z,101698.22
2019-02-04T04:40:25.657Z,101690.55
2019-02-04T04:42:55.464Z,101696.39
2019-02-04T04:45:25.729Z,101703.77
2019-02-04T04:47:54.911Z,101702.92
2019-02-04T04:50:24.083Z,101695.09
2019-02-04T04:52:53.263Z,101700.19
2019-02-04T04:55:24.824Z,101695.72
2019-02-04T04:57:54.028Z,101700.55
2019-02-04T05:00:25.840Z,101703.41
2019-02-04T05:02:55.168Z,101709.97
2019-02-04T05:05:24.679Z,101703.95
2019-02-04T05:07:54.309Z,101701.12
2019-02-04T05:10:23.532Z,101694.52
2019-02-04T05:12:52.799Z,101703.89
2019-02-04T05:15:24.212Z,101693.44
2019-02-04T05:17:53.376Z,101689.48
2019-02-04T05:20:22.814Z,101696.06
2019-02-04T05:22:52.619Z,101697.17
2019-02-04T05:25:22.254Z,101698.86
2019-02-04T05:27:52.923Z,101690.06
2019-02-04T05:30:26.268Z,101696.81
2019-02-04T05:32:55.713Z,101697.17
2019-02-04T05:35:25.241Z,101690.93
2019-02-04T05:37:54.973Z,101692.95
2019-02-04T05:40:24.192Z,101685.72
2019-02-04T05:42:53.759Z,101691.72
2019-02-04T05:45:22.922Z,101699.88
2019-02-04T05:47:52.147Z,101693.31
2019-02-04T05:50:21.356Z,101697.74
2019-02-04T05:52:50.667Z,101699.22
2019-02-04T05:55:21.345Z,101690.06
2019-02-04T05:57:51.026Z,101690.53
2019-02-04T06:00:32.282Z,101689.17
2019-02-04T06:03:01.786Z,101684.08
2019-02-04T06:05:31.013Z,101684.45
2019-02-04T06:08:00.904Z,101680.27
2019-02-04T06:10:30.444Z,101684.24
2019-02-04T06:12:59.992Z,101684.69
2019-02-04T06:15:29.213Z,101682.02
2019-02-04T06:17:58.393Z,101672.01
2019-02-04T06:20:28.026Z,101667.09
2019-02-04T06:22:57.205Z,101663.14
2019-02-04T06:25:26.384Z,101658.96
2019-02-04T06:27:55.695Z,101654.13
2019-02-04T06:30:25.881Z,101657.02
2019-02-04T06:32:55.036Z,101655.38
2019-02-04T06:35:24.585Z,101657.12
2019-02-04T06:37:53.856Z,101663.63
2019-02-04T06:40:23.459Z,101656.11
2019-02-04T06:42:52.724Z,101650.91
2019-02-04T06:45:22.042Z,101655.59
2019-02-04T06:47:51.223Z,101652.07
2019-02-04T06:50:20.617Z,101650.11
2019-02-04T06:52:49.780Z,101653.36
2019-02-04T06:55:21.960Z,101654.65
2019-02-04T06:57:51.148Z,101658.95
2019-02-04T07:00:20.458Z,101656.27
2019-02-04T07:02:53.320Z,101649.12
2019-02-04T07:05:22.501Z,101659.86
2019-02-04T07:07:52.675Z,101659.12
2019-02-04T07:10:23.568Z,101653.41
2019-02-04T07:12:53.160Z,101661.47
2019-02-04T07:15:22.409Z,101662.12
2019-02-04T07:17:51.684Z,101664.24
2019-02-04T07:20:24.150Z,101661.54
2019-02-04T07:22:54.026Z,101659.70
2019-02-04T07:25:24.529Z,101661.92
2019-02-04T07:27:54.009Z,101659.53
2019-02-04T07:30:25.371Z,101659.23
2019-02-04T07:32:55.590Z,101658.59
2019-02-04T07:35:24.936Z,101657.39
2019-02-04T07:37:56.025Z,101657.47
2019-02-04T07:40:30.618Z,101660.65
2019-02-04T07:43:00.570Z,101665.81
2019-02-04T07:45:30.291Z,101666.55
2019-02-04T07:47:59.464Z,101666.94
2019-02-04T07:50:28.743Z,101662.22
2019-02-04T07:53:00.990Z,101662.22
2019-02-04T07:55:30.486Z,101665.45
2019-02-04T07:57:59.990Z,101673.70
2019-02-04T08:00:31.194Z,101670.16
2019-02-04T08:03:02.440Z,101683.05
2019-02-04T08:05:31.747Z,101668.11
2019-02-04T08:08:00.964Z,101678.13
2019-02-04T08:10:30.603Z,101670.34
2019-02-04T08:13:01.782Z,101666.70
2019-02-04T08:15:33.906Z,101667.64
2019-02-04T08:18:03.213Z,101665.49
2019-02-04T08:20:32.715Z,101651.49
2019-02-04T08:23:01.906Z,101651.73
2019-02-04T08:25:31.404Z,101653.28
2019-02-04T08:28:00.841Z,101652.62
2019-02-04T08:30:37.897Z,101638.70
2019-02-04T08:33:06.879Z,101638.70
2019-02-04T08:35:36.106Z,101634.39
2019-02-04T08:38:08.476Z,101636.72
2019-02-04T08:40:38.062Z,101634.80
2019-02-04T08:43:07.266Z,101637.02
2019-02-04T08:45:36.887Z,101626.52
2019-02-04T08:48:06.917Z,101624.80
2019-02-04T08:50:36.133Z,101620.44
2019-02-04T08:53:05.698Z,101630.84
2019-02-04T08:55:35.540Z,101623.12
2019-02-04T08:58:05.651Z,101612.61
2019-02-04T09:00:35.215Z,101622.66
2019-02-04T09:03:04.427Z,101612.36
2019-02-04T09:05:34.356Z,101626.63
2019-02-04T09:08:03.574Z,101620.86
2019-02-04T09:10:34.062Z,101622.12
2019-02-04T09:13:03.487Z,101610.88
2019-02-04T09:15:33.105Z,101613.42
2019-02-04T09:18:03.479Z,101618.77
2019-02-04T09:20:32.665Z,101610.91
2019-02-04T09:23:01.883Z,101608.78
2019-02-04T09:25:31.455Z,101601.13
2019-02-04T09:28:00.964Z,101612.06
2019-02-04T09:30:30.143Z,101597.80
2019-02-04T09:33:00.146Z,101600.34
2019-02-04T09:35:29.999Z,101601.02
2019-02-04T09:37:59.571Z,101601.38
2019-02-04T09:40:37.647Z,101591.23
2019-02-04T09:43:07.274Z,101587.89
2019-02-04T09:45:36.902Z,101587.77
2019-02-04T09:48:07.864Z,101586.88
2019-02-04T09:50:37.495Z,101591.30
2019-02-04T09:53:06.913Z,101598.86
2019-02-04T09:55:37.487Z,101591.34
2019-02-04T09:58:06.813Z,101587.09
2019-02-04T10:00:36.727Z,101598.20
2019-02-04T10:03:06.126Z,101589.97
2019-02-04T10:05:35.326Z,101579.16
2019-02-04T10:08:26.232Z,101583.00
2019-02-04T10:10:55.483Z,101574.58
2019-02-04T10:13:24.652Z,101578.38
2019-02-04T10:15:53.980Z,101578.11
2019-02-04T10:18:23.609Z,101577.19
2019-02-04T10:20:52.853Z,101562.64
2019-02-04T10:23:22.442Z,101582.17
2019-02-04T10:25:51.644Z,101579.53
2019-02-04T10:28:21.033Z,101572.52
2019-02-04T10:30:50.533Z,101583.35
2019-02-04T10:33:19.695Z,101576.41
2019-02-04T10:35:48.955Z,101584.49
2019-02-04T10:38:18.460Z,101575.28
2019-02-04T10:40:47.993Z,101579.05
2019-02-04T10:43:17.199Z,101570.20
2019-02-04T10:45:46.765Z,101569.66
2019-02-04T10:48:16.036Z,101569.66
2019-02-04T10:50:47.042Z,101565.15
2019-02-04T10:53:16.967Z,101558.31
2019-02-04T10:55:46.366Z,101569.31
2019-02-04T10:58:15.563Z,101572.64
2019-02-04T11:00:45.659Z,101567.28
2019-02-04T11:03:14.788Z,101565.16
2019-02-04T11:05:44.083Z,101565.67
2019-02-04T11:08:14.132Z,101560.55
2019-02-04T11:10:44.019Z,101553.20
2019-02-04T11:13:15.374Z,101553.00
2019-02-04T11:15:46.077Z,101547.53
2019-02-04T11:18:15.881Z,101543.97
2019-02-04T11:20:57.248Z,101543.86
2019-02-04T11:23:16.841Z,101537.94
2019-02-04T11:25:46.153Z,101524.99
2019-02-04T11:28:15.942Z,101536.38
2019-02-04T11:30:51.642Z,101529.86
2019-02-04T11:33:20.800Z,101530.10
2019-02-04T11:35:50.430Z,101524.39
2019-02-04T11:38:19.749Z,101534.71
2019-02-04T11:40:49.449Z,101521.16
2019-02-04T11:43:20.357Z,101515.13
2019-02-04T11:45:49.631Z,101521.06
2019-02-04T11:48:19.065Z,101518.33
2019-02-04T11:50:48.693Z,101510.83
2019-02-04T11:53:17.887Z,101509.13
2019-02-04T11:55:48.119Z,101500.30
2019-02-04T11:58:17.585Z,101510.36
2019-02-04T12:00:47.166Z,101502.06
2019-02-04T12:03:16.912Z,101504.55
2019-02-04T12:05:46.555Z,101507.36
2019-02-04T12:08:17.884Z,101504.02
2019-02-04T12:10:57.225Z,101499.73
2019-02-04T12:13:26.914Z,101500.59
2019-02-04T12:15:58.714Z,101498.36
2019-02-04T12:18:28.287Z,101488.29
2019-02-04T12:20:57.668Z,101493.84
2019-02-04T12:23:27.194Z,101497.77
2019-02-04T12:25:56.732Z,101484.23
2019-02-04T12:28:26.618Z,101496.59
2019-02-04T12:30:55.796Z,101486.14
2019-02-04T12:33:24.984Z,101486.40
2019-02-04T12:35:54.183Z,101475.87
2019-02-04T12:38:23.392Z,101484.97
2019-02-04T12:40:54.397Z,101484.03
2019-02-04T12:43:24.265Z,101473.80
2019-02-04T12:45:53.775Z,101479.23
2019-02-04T12:48:22.945Z,101474.37
2019-02-04T12:50:53.194Z,101473.16
2019-02-04T12:53:22.744Z,101468.11
2019-02-04T12:55:51.954Z,101473.80
2019-02-04T12:58:21.610Z,101468.91
2019-02-04T13:00:51.027Z,101466.17
2019-02-04T13:03:20.184Z,101466.23
2019-02-04T13:05:54.504Z,101462.17
2019-02-04T13:08:23.789Z,101465.55
2019-02-04T13:10:52.936Z,101462.22
2019-02-04T13:13:23.349Z,101461.13
2019-02-04T13:15:52.627Z,101458.89
2019-02-04T13:18:22.168Z,101451.86
2019-02-04T13:20:51.311Z,101450.30
2019-02-04T13:23:20.937Z,101450.80
2019-02-04T13:25:50.100Z,101449.84
2019-02-04T13:28:21.147Z,101449.38
2019-02-04T13:30:50.451Z,101446.72
2019-02-04T13:33:20.251Z,101453.16
2019-02-04T13:35:49.355Z,101448.27
2019-02-04T13:38:18.958Z,101447.55
2019-02-04T13:40:48.474Z,101443.30
2019-02-04T13:43:17.723Z,101439.50
2019-02-04T13:45:46.872Z,101432.60
2019-02-04T13:48:17.137Z,101434.29
2019-02-04T13:50:46.306Z,101428.60
2019-02-04T13:53:15.551Z,101425.27
2019-02-04T13:55:44.969Z,101416.34
2019-02-04T13:58:14.471Z,101400.55
2019-02-04T14:00:43.709Z,101390.03
2019-02-04T14:03:12.893Z,101390.25
2019-02-04T14:05:42.054Z,101400.69
2019-02-04T14:08:11.249Z,101388.98
2019-02-04T14:10:42.990Z,101398.91
2019-02-04T14:13:15.111Z,101393.13
2019-02-04T14:15:44.247Z,101399.19
2019-02-04T14:18:13.693Z,101393.70
2019-02-04T14:20:42.966Z,101390.11
2019-02-04T14:23:12.161Z,101396.41
2019-02-04T14:25:41.613Z,101388.91
2019-02-04T14:28:11.900Z,101390.22
2019-02-04T14:30:41.810Z,101383.67
2019-02-04T14:33:11.040Z,101387.00
2019-02-04T14:35:40.211Z,101382.56
2019-02-04T14:38:10.590Z,101380.33
2019-02-04T14:40:39.784Z,101373.16
2019-02-04T14:43:42.205Z,101366.55
2019-02-04T14:46:41.707Z,101347.47
2019-02-04T14:50:06.553Z,101367.36
2019-02-04T14:53:17.715Z,101361.61
2019-02-04T14:56:43.152Z,101366.25
2019-02-04T14:59:46.764Z,101352.23
2019-02-04T15:02:57.913Z,101362.62
2019-02-04T15:05:48.645Z,101343.76
2019-02-04T15:09:04.965Z,101358.46
2019-02-04T15:12:15.008Z,101349.95
2019-02-04T15:15:27.343Z,101346.66
2019-02-04T15:18:14.591Z,101354.29
2019-02-04T15:21:23.495Z,101353.36
2019-02-04T15:24:08.974Z,101376.63
2019-02-04T15:27:16.469Z,101360.39
2019-02-04T15:30:08.122Z,101368.69
2019-02-04T15:32:59.500Z,101371.33
2019-02-04T15:36:08.450Z,101364.80
2019-02-04T15:39:13.797Z,101363.03
2019-02-04T15:42:13.725Z,101354.38
2019-02-04T15:45:27.711Z,101349.17
2019-02-04T15:48:33.465Z,101351.31
2019-02-04T15:51:25.674Z,101344.55
2019-02-04T15:53:55.561Z,101345.59
2019-02-04T15:56:29.400Z,101348.58
2019-02-04T15:58:58.546Z,101332.22
2019-02-04T16:01:30.636Z,101334.95
2019-02-04T16:04:00.135Z,101338.03
2019-02-04T16:06:29.924Z,101334.24
2019-02-04T16:08:59.149Z,101328.19
2019-02-04T16:11:28.702Z,101324.28
2019-02-04T16:13:58.568Z,101328.55
2019-02-04T16:16:28.098Z,101316.58
2019-02-04T16:18:57.265Z,101322.84
2019-02-04T16:21:27.631Z,101321.33
2019-02-04T16:23:56.774Z,101309.01
2019-02-04T16:26:26.230Z,101303.89
2019-02-04T16:28:55.481Z,101300.56
2019-02-04T16:31:24.631Z,101305.19
2019-02-04T16:33:53.931Z,101314.53
2019-02-04T16:36:23.816Z,101296.03
2019-02-04T16:38:53.445Z,101300.53
2019-02-04T16:41:22.755Z,101308.35
2019-02-04T16:43:51.992Z,101306.08
2019-02-04T16:46:21.170Z,101302.54
2019-02-04T16:48:50.318Z,101304.06
2019-02-04T16:51:19.739Z,101303.71
2019-02-04T16:53:49.002Z,101297.19
2019-02-04T16:56:20.049Z,101300.12
2019-02-04T16:58:49.197Z,101304.13
2019-02-04T17:01:18.432Z,101302.82
2019-02-04T17:03:47.713Z,101313.76
2019-02-04T17:06:18.681Z,101318.13
2019-02-04T17:08:47.936Z,101329.75
2019-02-04T17:11:24.684Z,101329.50
2019-02-04T17:13:54.211Z,101332.02
2019-02-04T17:16:23.392Z,101322.50
2019-02-04T17:18:53.001Z,101338.28
2019-02-04T17:21:22.211Z,101329.96
2019-02-04T17:23:54.091Z,101340.77
2019-02-04T17:26:23.639Z,101353.82
2019-02-04T17:28:52.777Z,101360.80
2019-02-04T17:31:21.994Z,101353.56
2019-02-04T17:33:51.598Z,101358.06
2019-02-04T17:36:20.981Z,101355.50
2019-02-04T17:38:50.482Z,101347.31
2019-02-04T17:41:21.115Z,101353.49
2019-02-04T17:43:51.787Z,101343.27
2019-02-04T17:46:21.338Z,101352.39
2019-02-04T17:48:51.188Z,101356.10
2019-02-04T17:51:20.887Z,101356.02
2019-02-04T17:53:51.322Z,101339.65
2019-02-04T17:56:22.362Z,101362.41
2019-02-04T17:58:51.634Z,101342.02
2019-02-04T18:01:21.578Z,101347.47
2019-02-04T18:03:50.823Z,101360.64
2019-02-04T18:06:20.444Z,101356.86
2019-02-04T18:08:49.907Z,101353.28
2019-02-04T18:11:19.143Z,101354.49
2019-02-04T18:13:48.376Z,101344.41
2019-02-04T18:16:18.240Z,101357.31
2019-02-04T18:18:47.795Z,101365.77
2019-02-04T18:21:17.321Z,101349.73
2019-02-04T18:23:46.867Z,101360.88
2019-02-04T18:26:16.071Z,101349.73
2019-02-04T18:28:47.777Z,101353.90
2019-02-04T18:31:16.300Z,101355.08
2019-02-04T18:33:45.506Z,101340.14
2019-02-04T18:36:14.798Z,101353.06
2019-02-04T18:38:43.992Z,101353.56
2019-02-04T18:41:13.163Z,101357.44
2019-02-04T18:43:42.631Z,101358.03
2019-02-04T18:46:11.879Z,101361.23
2019-02-04T18:48:42.776Z,101367.16
2019-02-04T18:51:11.996Z,101359.24
2019-02-04T18:53:41.244Z,101373.58
2019-02-04T18:56:11.429Z,101363.87
2019-02-04T18:58:40.597Z,101374.05
2019-02-04T19:01:10.468Z,101370.85
2019-02-04T19:03:39.688Z,101360.42
2019-02-04T19:06:08.984Z,101364.55
2019-02-04T19:08:38.223Z,101359.80
2019-02-04T19:11:08.062Z,101369.31
2019-02-04T19:13:37.682Z,101358.50
2019-02-04T19:16:07.274Z,101362.63
2019-02-04T19:18:37.092Z,101363.34
2019-02-04T19:21:06.575Z,101365.02
2019-02-04T19:23:36.103Z,101367.62
2019-02-04T19:26:05.852Z,101370.36
2019-02-04T19:28:35.690Z,101370.45
2019-02-04T19:31:13.969Z,101375.20
2019-02-04T19:33:43.579Z,101362.04
2019-02-04T19:36:13.495Z,101386.58
2019-02-04T19:38:43.380Z,101379.96
2019-02-04T19:41:12.984Z,101400.59
2019-02-04T19:43:42.603Z,101388.63
2019-02-04T19:46:11.948Z,101403.66
2019-02-04T19:48:44.579Z,101402.35
2019-02-04T19:51:14.844Z,101405.20
2019-02-04T19:53:44.414Z,101408.39
2019-02-04T19:56:14.257Z,101402.92
2019-02-04T19:58:43.688Z,101396.77
2019-02-04T20:01:13.060Z,101399.97
2019-02-04T20:03:44.057Z,101406.83
2019-02-04T20:06:13.993Z,101403.52
2019-02-04T20:08:43.188Z,101406.01
2019-02-04T20:11:13.587Z,101404.94
2019-02-04T20:16:24.773Z,101408.83
2019-02-04T20:18:54.578Z,101416.28
2019-02-04T20:21:25.286Z,101413.91
2019-02-04T20:23:54.833Z,101403.58
2019-02-04T20:26:24.037Z,101405.12
2019-02-04T20:28:53.871Z,101416.37
2019-02-04T20:31:23.047Z,101421.81
2019-02-04T20:33:52.682Z,101417.93
2019-02-04T20:36:21.920Z,101416.86
2019-02-04T20:38:51.554Z,101408.42
2019-02-04T20:41:20.754Z,101411.48
2019-02-04T20:43:50.495Z,101413.05
2019-02-04T20:46:20.139Z,101409.41
2019-02-04T20:48:50.319Z,101422.80
2019-02-04T20:51:19.803Z,101418.30
2019-02-04T20:53:49.374Z,101426.48
2019-02-04T20:56:18.641Z,101415.09
2019-02-04T20:58:48.150Z,101414.64
2019-02-04T21:01:18.034Z,101415.25
2019-02-04T21:03:47.646Z,101417.25
2019-02-04T21:06:16.833Z,101423.66
2019-02-04T21:08:46.017Z,101422.23
2019-02-04T21:11:15.884Z,101415.11
2019-02-04T21:13:45.111Z,101404.69
2019-02-04T21:16:14.307Z,101425.39
2019-02-04T21:18:43.689Z,101417.69
2019-02-04T21:21:13.290Z,101431.66
2019-02-04T21:23:42.497Z,101431.53
2019-02-04T21:26:11.713Z,101426.20
2019-02-04T21:28:41.678Z,101425.86
2019-02-04T21:31:11.494Z,101430.35
2019-02-04T21:33:40.790Z,101432.72
2019-02-04T21:36:10.072Z,101439.61
2019-02-04T21:38:39.318Z,101440.53
2019-02-04T21:41:08.887Z,101445.31
2019-02-04T21:43:38.418Z,101442.12
2019-02-04T21:46:07.613Z,101435.23
2019-02-04T21:48:37.154Z,101434.02
2019-02-04T21:51:06.723Z,101430.03
2019-02-04T21:53:36.571Z,101432.52
2019-02-04T21:56:05.822Z,101432.72
2019-02-04T21:58:35.045Z,101435.33
2019-02-04T22:01:04.346Z,101430.23
2019-02-04T22:03:33.549Z,101438.31
2019-02-04T22:06:03.138Z,101435.61
2019-02-04T22:08:32.695Z,101434.42
2019-02-04T22:11:02.268Z,101437.95
2019-02-04T22:13:32.032Z,101440.82
2019-02-04T22:16:02.098Z,101436.80
2019-02-04T22:18:31.284Z,101433.13
2019-02-04T22:21:00.595Z,101438.80
2019-02-04T22:23:29.758Z,101443.91
2019-02-04T22:25:59.213Z,101448.40
2019-02-04T22:28:28.453Z,101447.94
2019-02-04T22:30:57.908Z,101444.49
2019-02-04T22:33:27.128Z,101447.80
2019-02-04T22:35:56.464Z,101456.45
2019-02-04T22:38:25.995Z,101453.95
2019-02-04T22:40:55.221Z,101456.56
2019-02-04T22:43:24.719Z,101465.20
2019-02-04T22:45:53.906Z,101452.89
2019-02-04T22:48:23.407Z,101447.23
2019-02-04T22:50:52.679Z,101445.81
2019-02-04T22:53:21.902Z,101443.09
2019-02-04T22:55:51.126Z,101447.70
2019-02-04T22:58:20.398Z,101437.50
2019-02-04T23:01:21.442Z,101445.23
2019-02-04T23:03:50.657Z,101457.77
2019-02-04T23:06:19.906Z,101447.11
2019-02-04T23:08:49.457Z,101450.05
2019-02-04T23:11:18.950Z,101450.55
2019-02-04T23:13:48.525Z,101439.30
2019-02-04T23:16:17.688Z,101436.69
2019-02-04T23:18:47.195Z,101432.69
2019-02-04T23:21:16.765Z,101434.44
2019-02-04T23:23:46.003Z,101427.94
2019-02-04T23:26:15.197Z,101435.17
2019-02-04T23:28:44.397Z,101445.58
2019-02-04T23:31:13.621Z,101451.39
2019-02-04T23:33:42.854Z,101453.18
2019-02-04T23:36:13.582Z,101465.14
2019-02-04T23:38:42.832Z,101465.35
2019-02-04T23:41:12.043Z,101487.06
2019-02-04T23:43:41.564Z,101482.81
2019-02-04T23:46:11.977Z,101487.77
2019-02-04T23:48:41.448Z,101492.28
2019-02-04T23:51:11.089Z,101482.69
2019-02-04T23:53:40.299Z,101477.10
2019-02-04T23:56:10.614Z,101486.73
2019-02-04T23:58:40.255Z,101495.27
